createdAt,value
2023-04-09T00:00:27.349Z,13.13
2023-04-09T00:03:14.567Z,12.13
2023-04-09T00:05:42.190Z,16.55
2023-04-09T00:08:09.423Z,11.63
2023-04-09T00:10:36.982Z,13.02
2023-04-09T00:13:04.291Z,15.52
2023-04-09T00:15:32.103Z,14.90
2023-04-09T00:18:00.069Z,14.68
2023-04-09T00:20:27.674Z,10.25
2023-04-09T00:22:56.432Z,12.95
2023-04-09T00:25:24.440Z,12.02
2023-04-09T00:27:51.676Z,13.38
2023-04-09T00:30:19.226Z,11.48
2023-04-09T00:32:46.693Z,14.20
2023-04-09T00:35:14.760Z,21.38
2023-04-09T00:37:42.038Z,13.80
2023-04-09T00:40:10.402Z,12.90
2023-04-09T00:42:37.927Z,14.60
2023-04-09T00:45:06.444Z,12.18
2023-04-09T00:47:34.977Z,13.27
2023-04-09T00:50:03.202Z,15.40
2023-04-09T00:52:31.075Z,13.80
2023-04-09T00:55:03.833Z,13.20
2023-04-09T00:57:31.112Z,14.88
2023-04-09T00:59:58.831Z,16.90
2023-04-09T01:02:26.960Z,17.05
2023-04-09T01:04:54.586Z,15.80
2023-04-09T01:07:45.972Z,17.27
2023-04-09T01:10:25.795Z,15.63
2023-04-09T01:13:16.870Z,16.10
2023-04-09T01:15:52.167Z,15.27
2023-04-09T01:18:24.702Z,17.08
2023-04-09T01:21:05.437Z,16.90
2023-04-09T01:24:09.974Z,18.30
2023-04-09T01:27:04.209Z,17.40
2023-04-09T01:29:50.245Z,15.68
2023-04-09T01:32:19.612Z,16.90
2023-04-09T01:34:48.349Z,16.63
2023-04-09T01:37:17.136Z,16.83
2023-04-09T01:39:45.534Z,16.58
2023-04-09T01:42:15.984Z,16.10
2023-04-09T01:44:45.378Z,18.08
2023-04-09T01:47:13.641Z,16.23
2023-04-09T01:49:41.983Z,19.48
2023-04-09T01:52:10.405Z,15.23
2023-04-09T01:54:37.920Z,16.55
2023-04-09T01:57:05.816Z,17.20
2023-04-09T01:59:33.299Z,17.95
2023-04-09T02:02:09.636Z,20.13
2023-04-09T02:04:46.572Z,18.48
2023-04-09T02:07:36.575Z,20.10
2023-04-09T02:10:06.993Z,19.58
2023-04-09T02:12:37.245Z,19.83
2023-04-09T02:15:06.081Z,19.58
2023-04-09T02:17:33.687Z,22.73
2023-04-09T02:20:00.907Z,22.52
2023-04-09T02:22:28.468Z,21.55
2023-04-09T02:24:55.780Z,23.02
2023-04-09T02:27:23.261Z,26.48
2023-04-09T02:29:50.813Z,24.17
2023-04-09T02:32:18.285Z,23.50
2023-04-09T02:34:46.018Z,23.50
2023-04-09T02:37:13.526Z,24.27
2023-04-09T02:39:40.871Z,21.08
2023-04-09T02:42:08.397Z,31.42
2023-04-09T02:44:35.747Z,26.30
2023-04-09T02:47:03.447Z,30.10
2023-04-09T02:49:31.125Z,38.25
2023-04-09T02:51:58.605Z,24.15
2023-04-09T02:54:25.795Z,27.10
2023-04-09T02:56:53.281Z,27.10
2023-04-09T02:59:20.546Z,25.50
2023-04-09T03:01:48.130Z,27.95
2023-04-09T03:04:15.996Z,33.60
2023-04-09T03:06:43.518Z,36.83
2023-04-09T03:09:10.734Z,45.33
2023-04-09T03:11:38.273Z,22.05
2023-04-09T03:14:05.502Z,27.10
2023-04-09T03:16:33.026Z,24.40
2023-04-09T03:19:00.168Z,21.75
2023-04-09T03:21:28.144Z,23.98
2023-04-09T03:23:55.399Z,27.67
2023-04-09T03:26:23.054Z,27.73
2023-04-09T03:28:51.052Z,19.30
2023-04-09T03:31:19.146Z,23.30
2023-04-09T03:33:47.268Z,29.58
2023-04-09T03:36:14.963Z,27.10
2023-04-09T03:39:01.554Z,26.80
2023-04-09T03:41:35.791Z,27.13
2023-04-09T03:44:10.666Z,30.23
2023-04-09T03:47:00.993Z,35.42
2023-04-09T03:49:29.475Z,27.67
2023-04-09T03:52:03.548Z,28.63
2023-04-09T03:54:37.342Z,33.17
2023-04-09T03:57:10.580Z,34.17
2023-04-09T03:59:40.583Z,36.20
2023-04-09T04:02:08.200Z,57.25
2023-04-09T04:04:39.804Z,39.80
2023-04-09T04:07:10.561Z,38.08
2023-04-09T04:09:44.675Z,40.10
2023-04-09T04:12:16.132Z,33.88
2023-04-09T04:14:55.371Z,34.00
2023-04-09T04:17:49.231Z,37.70
2023-04-09T04:20:27.516Z,43.38
2023-04-09T04:23:03.661Z,40.35
2023-04-09T04:25:32.366Z,40.90
2023-04-09T04:28:02.161Z,41.40
2023-04-09T04:30:37.601Z,44.50
2023-04-09T04:33:08.724Z,44.45
2023-04-09T04:35:43.693Z,41.45
2023-04-09T04:38:27.395Z,37.22
2023-04-09T04:40:55.778Z,41.25
2023-04-09T04:43:24.209Z,39.42
2023-04-09T04:45:55.500Z,40.35
2023-04-09T04:48:25.784Z,39.08
2023-04-09T04:51:00.212Z,41.97
2023-04-09T04:53:33.346Z,38.95
2023-04-09T04:56:07.204Z,40.45
2023-04-09T04:58:34.815Z,45.00
2023-04-09T05:01:02.654Z,49.75
2023-04-09T05:03:30.481Z,46.42
2023-04-09T05:06:23.489Z,50.15
2023-04-09T05:08:51.197Z,47.47
2023-04-09T05:11:18.762Z,47.38
2023-04-09T05:13:48.569Z,45.67
2023-04-09T05:16:18.072Z,46.47
2023-04-09T05:18:49.862Z,48.13
2023-04-09T05:21:17.441Z,55.53
2023-04-09T05:23:46.490Z,46.75
2023-04-09T05:26:13.751Z,50.72
2023-04-09T05:28:52.533Z,47.05
2023-04-09T05:31:22.425Z,44.08
2023-04-09T05:33:56.245Z,49.75
2023-04-09T05:36:33.322Z,45.30
2023-04-09T05:39:01.745Z,52.90
2023-04-09T05:41:30.698Z,46.13
2023-04-09T05:44:19.003Z,52.38
2023-04-09T05:46:46.285Z,53.83
2023-04-09T05:49:17.874Z,50.47
2023-04-09T05:51:48.191Z,48.33
2023-04-09T05:54:21.774Z,52.40
2023-04-09T05:56:48.952Z,48.42
2023-04-09T05:59:17.244Z,43.30
2023-04-09T06:01:44.530Z,48.47
2023-04-09T06:04:12.279Z,53.28
2023-04-09T06:06:39.751Z,49.42
2023-04-09T06:09:07.307Z,53.70
2023-04-09T06:11:38.457Z,49.60
2023-04-09T06:14:05.964Z,46.85
2023-04-09T06:16:34.051Z,62.38
2023-04-09T06:19:01.556Z,54.40
2023-04-09T06:21:28.797Z,72.68
2023-04-09T06:23:56.271Z,59.53
2023-04-09T06:26:23.487Z,62.30
2023-04-09T06:28:51.035Z,58.90
2023-04-09T06:31:18.307Z,63.28
2023-04-09T06:33:45.893Z,97.13
2023-04-09T06:36:13.103Z,60.80
2023-04-09T06:38:40.716Z,57.88
2023-04-09T06:41:08.958Z,57.05
2023-04-09T06:43:37.510Z,56.50
2023-04-09T06:46:04.704Z,63.20
2023-04-09T06:48:34.223Z,53.28
2023-04-09T06:51:01.451Z,57.60
2023-04-09T06:53:29.149Z,56.40
2023-04-09T06:55:57.225Z,62.55
2023-04-09T06:58:24.927Z,64.05
2023-04-09T07:00:52.123Z,65.63
2023-04-09T07:03:20.072Z,57.30
2023-04-09T07:05:47.569Z,52.17
2023-04-09T07:08:15.563Z,59.63
2023-04-09T07:10:42.748Z,57.42
2023-04-09T07:13:10.529Z,54.13
2023-04-09T07:15:39.157Z,54.85
2023-04-09T07:18:08.210Z,59.63
2023-04-09T07:20:35.851Z,56.78
2023-04-09T07:23:03.455Z,56.85
2023-04-09T07:25:30.896Z,54.85
2023-04-09T07:27:58.695Z,53.20
2023-04-09T07:30:26.615Z,57.15
2023-04-09T07:32:54.403Z,56.80
2023-04-09T07:35:21.851Z,53.92
2023-04-09T07:37:49.313Z,51.15
2023-04-09T07:40:16.873Z,49.33
2023-04-09T07:42:44.509Z,49.65
2023-04-09T07:45:12.103Z,49.28
2023-04-09T07:47:41.249Z,49.60
2023-04-09T07:50:09.149Z,47.50
2023-04-09T07:52:36.899Z,47.45
2023-04-09T07:55:04.558Z,47.10
2023-04-09T07:57:33.113Z,49.15
2023-04-09T08:00:00.358Z,46.33
2023-04-09T08:02:27.975Z,46.67
2023-04-09T08:04:55.631Z,48.80
2023-04-09T08:07:25.552Z,48.13
2023-04-09T08:09:52.775Z,52.70
2023-04-09T08:12:20.432Z,49.40
2023-04-09T08:14:47.681Z,51.70
2023-04-09T08:17:15.441Z,50.67
2023-04-09T08:19:42.724Z,54.05
2023-04-09T08:22:10.439Z,49.05
2023-04-09T08:24:40.003Z,49.08
2023-04-09T08:27:07.730Z,44.00
2023-04-09T08:29:35.043Z,49.97
2023-04-09T08:32:02.557Z,45.47
2023-04-09T08:34:29.810Z,44.03
2023-04-09T08:36:57.385Z,44.50
2023-04-09T08:39:25.395Z,46.75
2023-04-09T08:41:57.898Z,48.75
2023-04-09T08:44:28.688Z,49.38
2023-04-09T08:46:58.467Z,40.08
2023-04-09T08:49:26.960Z,43.78
2023-04-09T08:51:54.513Z,36.75
2023-04-09T08:54:21.738Z,33.45
2023-04-09T08:56:49.374Z,32.25
2023-04-09T08:59:20.870Z,31.08
2023-04-09T09:01:54.198Z,38.53
2023-04-09T09:04:21.912Z,39.92
2023-04-09T09:06:49.549Z,34.50
2023-04-09T09:09:18.919Z,33.67
2023-04-09T09:11:50.144Z,30.10
2023-04-09T09:14:19.226Z,25.33
2023-04-09T09:16:55.667Z,27.00
2023-04-09T09:19:26.081Z,27.75
2023-04-09T09:22:01.810Z,28.30
2023-04-09T09:24:29.594Z,28.63
2023-04-09T09:26:58.847Z,27.70
2023-04-09T09:29:26.544Z,30.73
2023-04-09T09:31:55.652Z,25.33
2023-04-09T09:34:24.999Z,26.08
2023-04-09T09:36:53.072Z,25.23
2023-04-09T09:39:22.065Z,21.25
2023-04-09T09:42:07.960Z,21.38
2023-04-09T09:44:35.310Z,23.73
2023-04-09T09:47:04.697Z,22.35
2023-04-09T09:49:32.235Z,23.83
2023-04-09T09:52:02.832Z,20.92
2023-04-09T09:54:39.869Z,28.08
2023-04-09T09:57:08.828Z,32.10
2023-04-09T09:59:43.486Z,34.03
2023-04-09T10:02:19.002Z,34.85
2023-04-09T10:04:50.847Z,29.65
2023-04-09T10:09:51.114Z,36.20
2023-04-09T10:12:23.679Z,34.30
2023-04-09T10:14:53.077Z,31.42
2023-04-09T10:17:21.758Z,43.42
2023-04-09T10:20:15.996Z,28.08
2023-04-09T10:22:48.840Z,34.28
2023-04-09T10:25:16.730Z,28.95
2023-04-09T10:27:49.248Z,26.67
2023-04-09T10:30:33.350Z,22.42
2023-04-09T10:33:16.019Z,23.60
2023-04-09T10:38:17.065Z,25.58
2023-04-09T10:40:49.690Z,22.33
2023-04-09T10:43:21.263Z,21.73
2023-04-09T10:45:53.328Z,23.25
2023-04-09T10:48:22.036Z,23.42
2023-04-09T10:50:52.224Z,25.08
2023-04-09T10:53:24.128Z,29.98
2023-04-09T10:55:53.124Z,27.60
2023-04-09T10:58:20.716Z,27.20
2023-04-09T11:00:50.187Z,27.15
2023-04-09T11:03:29.016Z,24.60
2023-04-09T11:06:06.120Z,30.63
2023-04-09T11:08:34.402Z,27.52
2023-04-09T11:11:02.490Z,26.70
2023-04-09T11:13:31.727Z,37.88
2023-04-09T11:16:01.203Z,32.55
2023-04-09T11:18:30.407Z,36.22
2023-04-09T11:20:59.543Z,32.92
2023-04-09T11:23:27.906Z,41.20
2023-04-09T11:25:56.200Z,29.83
2023-04-09T11:28:24.435Z,38.47
2023-04-09T11:30:52.375Z,38.58
2023-04-09T11:33:20.777Z,40.13
2023-04-09T11:35:48.890Z,35.10
2023-04-09T11:38:16.683Z,29.27
2023-04-09T11:40:48.761Z,31.05
2023-04-09T11:43:17.752Z,35.67
2023-04-09T11:45:48.225Z,36.92
2023-04-09T11:48:21.907Z,34.15
2023-04-09T11:50:49.682Z,59.13
2023-04-09T11:53:22.372Z,40.80
2023-04-09T11:55:53.651Z,37.63
2023-04-09T11:58:26.249Z,36.80
2023-04-09T12:00:58.627Z,41.92
2023-04-09T12:03:33.174Z,37.03
2023-04-09T12:06:02.812Z,45.97
2023-04-09T12:08:31.390Z,39.42
2023-04-09T12:11:09.169Z,46.72
2023-04-09T12:13:36.680Z,33.75
2023-04-09T12:16:04.142Z,39.33
2023-04-09T12:18:37.606Z,43.17
2023-04-09T12:21:06.138Z,35.65
2023-04-09T12:23:33.633Z,36.78
2023-04-09T12:26:02.170Z,33.63
2023-04-09T12:28:29.997Z,41.20
2023-04-09T12:30:59.388Z,29.00
2023-04-09T12:33:27.314Z,31.15
2023-04-09T12:35:54.605Z,33.88
2023-04-09T12:38:22.165Z,37.15
2023-04-09T12:40:49.545Z,34.72
2023-04-09T12:43:17.151Z,41.83
2023-04-09T12:45:44.396Z,40.90
2023-04-09T12:48:13.077Z,36.63
2023-04-09T12:50:40.332Z,38.05
2023-04-09T12:53:08.911Z,43.22
2023-04-09T12:55:36.187Z,32.45
2023-04-09T12:58:03.734Z,31.00
2023-04-09T13:00:31.343Z,32.63
2023-04-09T13:02:59.159Z,35.72
2023-04-09T13:05:26.630Z,35.80
2023-04-09T13:07:54.206Z,46.17
2023-04-09T13:10:21.466Z,42.33
2023-04-09T13:12:48.946Z,42.72
2023-04-09T13:15:16.551Z,45.53
2023-04-09T13:17:44.135Z,50.78
2023-04-09T13:20:11.570Z,43.05
2023-04-09T13:22:39.355Z,51.88
2023-04-09T13:25:06.822Z,48.92
2023-04-09T13:27:34.271Z,54.92
2023-04-09T13:30:02.612Z,49.17
2023-04-09T13:32:30.089Z,51.22
2023-04-09T13:34:58.049Z,55.20
2023-04-09T13:37:26.081Z,50.83
2023-04-09T13:39:53.559Z,54.35
2023-04-09T13:42:21.281Z,59.83
2023-04-09T13:44:48.546Z,53.97
2023-04-09T13:47:17.493Z,53.88
2023-04-09T13:49:44.740Z,78.57
2023-04-09T13:52:12.267Z,84.53
2023-04-09T13:54:39.681Z,60.75
2023-04-09T13:57:07.212Z,53.97
2023-04-09T13:59:34.537Z,48.20
2023-04-09T14:02:02.168Z,52.38
2023-04-09T14:04:29.676Z,48.90
2023-04-09T14:06:59.868Z,48.55
2023-04-09T14:09:27.055Z,55.03
2023-04-09T14:11:55.205Z,50.63
2023-04-09T14:14:22.537Z,50.58
2023-04-09T14:16:50.477Z,50.78
2023-04-09T14:19:17.734Z,46.22
2023-04-09T14:21:45.343Z,50.38
2023-04-09T14:24:12.671Z,57.33
2023-04-09T14:26:40.818Z,43.22
2023-04-09T14:29:08.221Z,48.70
2023-04-09T14:31:35.889Z,45.80
2023-04-09T14:34:03.393Z,51.67
2023-04-09T14:36:31.687Z,42.80
2023-04-09T14:38:59.182Z,38.42
2023-04-09T14:41:27.069Z,36.95
2023-04-09T14:43:54.245Z,46.50
2023-04-09T14:46:22.175Z,48.65
2023-04-09T14:48:49.684Z,51.13
2023-04-09T14:51:17.709Z,47.55
2023-04-09T14:53:45.312Z,55.20
2023-04-09T14:56:13.147Z,59.33
2023-04-09T14:58:40.342Z,50.38
2023-04-09T15:01:07.966Z,52.72
2023-04-09T15:03:35.491Z,44.17
2023-04-09T15:06:03.779Z,39.92
2023-04-09T15:08:31.608Z,34.45
2023-04-09T15:10:59.550Z,33.22
2023-04-09T15:13:26.811Z,31.30
2023-04-09T15:15:54.520Z,33.83
2023-04-09T15:18:22.047Z,29.65
2023-04-09T15:20:50.516Z,33.67
2023-04-09T15:23:17.724Z,36.25
2023-04-09T15:25:45.394Z,40.67
2023-04-09T15:28:12.844Z,41.65
2023-04-09T15:30:41.834Z,46.05
2023-04-09T15:33:09.026Z,44.40
2023-04-09T15:35:37.821Z,44.65
2023-04-09T15:38:05.422Z,43.25
2023-04-09T15:40:32.931Z,50.25
2023-04-09T15:43:00.267Z,47.65
2023-04-09T15:45:27.873Z,46.42
2023-04-09T15:47:55.366Z,43.67
2023-04-09T15:50:23.076Z,47.58
2023-04-09T15:52:50.519Z,61.78
2023-04-09T15:55:18.302Z,52.38
2023-04-09T15:57:46.915Z,68.28
2023-04-09T16:00:15.517Z,60.30
2023-04-09T16:02:43.260Z,48.38
2023-04-09T16:05:10.896Z,58.25
2023-04-09T16:07:39.689Z,63.47
2023-04-09T16:10:08.149Z,63.33
2023-04-09T16:12:35.568Z,60.08
2023-04-09T16:15:03.441Z,58.15
2023-04-09T16:17:31.018Z,55.40
2023-04-09T16:19:58.624Z,58.03
2023-04-09T16:22:26.017Z,56.63
2023-04-09T16:24:53.490Z,63.75
2023-04-09T16:27:20.885Z,61.90
2023-04-09T16:29:48.604Z,68.75
2023-04-09T16:32:16.042Z,69.20
2023-04-09T16:34:43.708Z,79.75
2023-04-09T16:37:11.250Z,70.85
2023-04-09T16:39:38.816Z,82.80
2023-04-09T16:42:06.272Z,74.40
2023-04-09T16:44:33.776Z,74.38
2023-04-09T16:47:02.684Z,74.60
2023-04-09T16:49:31.492Z,67.10
2023-04-09T16:51:58.929Z,73.00
2023-04-09T16:54:26.419Z,89.82
2023-04-09T16:56:53.850Z,71.10
2023-04-09T16:59:21.961Z,72.82
2023-04-09T17:01:49.389Z,78.75
2023-04-09T17:04:17.569Z,71.38
2023-04-09T17:06:45.868Z,64.45
2023-04-09T17:09:13.454Z,66.85
2023-04-09T17:11:40.752Z,67.85
2023-04-09T17:14:08.477Z,69.75
2023-04-09T17:16:37.151Z,65.13
2023-04-09T17:19:04.821Z,77.05
2023-04-09T17:21:32.310Z,67.03
2023-04-09T17:24:01.946Z,70.90
2023-04-09T17:26:29.902Z,68.57
2023-04-09T17:28:57.351Z,74.38
2023-04-09T17:31:24.776Z,70.30
2023-04-09T17:33:52.314Z,70.50
2023-04-09T17:36:21.088Z,73.72
2023-04-09T17:38:52.206Z,64.50
2023-04-09T17:41:19.685Z,70.72
2023-04-09T17:43:47.489Z,69.65
2023-04-09T17:46:14.821Z,59.78
2023-04-09T17:48:42.809Z,61.83
2023-04-09T17:51:15.051Z,63.72
2023-04-09T17:53:42.806Z,64.75
2023-04-09T17:56:16.578Z,63.25
2023-04-09T17:58:45.043Z,63.17
2023-04-09T18:01:13.472Z,66.32
2023-04-09T18:03:45.731Z,67.82
2023-04-09T18:06:15.359Z,63.20
2023-04-09T18:08:43.495Z,68.00
2023-04-09T18:11:13.310Z,70.40
2023-04-09T18:13:41.572Z,62.47
2023-04-09T18:16:10.722Z,69.50
2023-04-09T18:18:39.066Z,93.93
2023-04-09T18:21:06.848Z,94.30
2023-04-09T18:23:34.567Z,98.43
2023-04-09T18:26:02.140Z,79.75
2023-04-09T18:28:30.032Z,78.35
2023-04-09T18:30:57.682Z,76.47
2023-04-09T18:33:27.099Z,82.25
2023-04-09T18:35:54.410Z,82.93
2023-04-09T18:38:22.858Z,86.05
2023-04-09T18:40:50.278Z,84.47
2023-04-09T18:43:18.293Z,78.80
2023-04-09T18:45:45.774Z,86.55
2023-04-09T18:48:13.503Z,88.65
2023-04-09T18:50:41.146Z,90.25
2023-04-09T18:53:09.784Z,79.88
2023-04-09T18:55:38.188Z,82.88
2023-04-09T18:58:12.564Z,85.95
2023-04-09T19:00:39.949Z,92.90
2023-04-09T19:03:08.619Z,109.43
2023-04-09T19:05:36.441Z,115.70
2023-04-09T19:08:05.651Z,113.95
2023-04-09T19:10:32.926Z,99.40
2023-04-09T19:13:00.420Z,86.47
2023-04-09T19:15:29.292Z,109.50
2023-04-09T19:17:57.471Z,102.15
2023-04-09T19:20:24.697Z,107.30
2023-04-09T19:22:54.518Z,105.53
2023-04-09T19:25:22.884Z,107.43
2023-04-09T19:27:51.036Z,98.78
2023-04-09T19:30:18.255Z,104.63
2023-04-09T19:32:46.325Z,99.93
2023-04-09T19:35:13.657Z,92.68
2023-04-09T19:37:41.571Z,98.82
2023-04-09T19:40:09.405Z,90.65
2023-04-09T19:42:36.992Z,87.00
2023-04-09T19:45:04.762Z,87.45
2023-04-09T19:47:34.014Z,92.97
2023-04-09T19:50:01.347Z,94.15
2023-04-09T19:52:29.108Z,85.63
2023-04-09T19:54:57.112Z,90.43
2023-04-09T19:57:26.497Z,88.18
2023-04-09T19:59:54.173Z,87.95
2023-04-09T20:02:22.176Z,95.03
2023-04-09T20:04:50.599Z,92.45
2023-04-09T20:07:18.273Z,93.80
2023-04-09T20:09:46.949Z,122.40
2023-04-09T20:12:14.575Z,109.38
2023-04-09T20:14:41.844Z,111.72
2023-04-09T20:17:10.659Z,118.28
2023-04-09T20:19:38.089Z,136.23
2023-04-09T20:22:05.697Z,124.20
2023-04-09T20:24:33.931Z,107.80
2023-04-09T20:27:01.639Z,108.85
2023-04-09T20:29:29.212Z,121.85
2023-04-09T20:31:57.763Z,111.40
2023-04-09T20:34:27.029Z,104.95
2023-04-09T20:36:55.660Z,125.80
2023-04-09T20:39:26.588Z,104.90
2023-04-09T20:41:56.571Z,98.55
2023-04-09T20:44:24.586Z,117.25
2023-04-09T20:46:52.099Z,147.27
2023-04-09T20:49:19.483Z,112.45
2023-04-09T20:51:47.630Z,94.65
2023-04-09T20:54:18.010Z,87.38
2023-04-09T20:56:45.616Z,89.68
2023-04-09T20:59:12.847Z,95.65
2023-04-09T21:01:40.470Z,86.10
2023-04-09T21:04:08.871Z,88.95
2023-04-09T21:06:36.563Z,89.03
2023-04-09T21:09:03.913Z,86.18
2023-04-09T21:11:31.587Z,95.43
2023-04-09T21:13:58.924Z,105.47
2023-04-09T21:16:28.536Z,96.90
2023-04-09T21:18:56.187Z,90.07
2023-04-09T21:21:24.119Z,86.70
2023-04-09T21:23:51.436Z,78.97
2023-04-09T21:26:19.021Z,81.00
2023-04-09T21:28:48.218Z,77.85
2023-04-09T21:31:16.002Z,87.43
2023-04-09T21:33:43.418Z,82.70
2023-04-09T21:36:11.251Z,92.75
2023-04-09T21:38:38.595Z,100.50
2023-04-09T21:41:06.239Z,201.27
2023-04-09T21:43:34.647Z,215.40
2023-04-09T21:46:03.046Z,205.80
2023-04-09T21:48:31.253Z,161.27
2023-04-09T21:50:58.725Z,89.32
2023-04-09T21:53:27.063Z,84.75
2023-04-09T21:55:54.553Z,89.72
2023-04-09T21:58:21.862Z,99.80
2023-04-09T22:00:49.342Z,108.82
2023-04-09T22:03:16.650Z,113.78
2023-04-09T22:05:44.394Z,89.63
2023-04-09T22:08:13.065Z,90.50
2023-04-09T22:10:42.346Z,94.43
2023-04-09T22:13:09.554Z,109.88
2023-04-09T22:15:37.037Z,107.30
2023-04-09T22:18:04.399Z,89.50
2023-04-09T22:20:31.886Z,252.82
2023-04-09T22:22:59.632Z,126.85
2023-04-09T22:25:27.183Z,100.70
2023-04-09T22:27:54.481Z,132.55
2023-04-09T22:30:23.758Z,96.00
2023-04-09T22:32:51.686Z,134.88
2023-04-09T22:35:19.319Z,93.70
2023-04-09T22:37:47.025Z,83.78
2023-04-09T22:40:16.157Z,82.95
2023-04-09T22:42:45.988Z,90.25
2023-04-09T22:45:14.116Z,84.07
2023-04-09T22:47:41.721Z,92.05
2023-04-09T22:50:09.748Z,151.30
2023-04-09T22:52:36.961Z,114.22
2023-04-09T22:55:05.256Z,113.43
2023-04-09T22:57:32.466Z,102.07
2023-04-09T23:00:00.236Z,84.53
2023-04-09T23:02:27.570Z,88.10
2023-04-09T23:04:55.369Z,84.60
2023-04-09T23:07:22.705Z,79.28
2023-04-09T23:09:50.363Z,82.15
2023-04-09T23:12:17.604Z,85.88
2023-04-09T23:14:45.294Z,81.32
2023-04-09T23:17:13.526Z,79.78
2023-04-09T23:19:41.387Z,80.55
2023-04-09T23:22:08.956Z,85.28
2023-04-09T23:24:36.486Z,79.32
2023-04-09T23:27:03.786Z,90.65
2023-04-09T23:29:31.241Z,92.72
2023-04-09T23:31:58.447Z,100.00
2023-04-09T23:34:26.268Z,88.97
2023-04-09T23:36:53.514Z,87.72
2023-04-09T23:39:21.120Z,83.82
2023-04-09T23:41:48.575Z,83.90
2023-04-09T23:44:16.371Z,91.75
2023-04-09T23:46:43.590Z,81.93
2023-04-09T23:49:11.145Z,87.13
2023-04-09T23:51:38.482Z,83.88
2023-04-09T23:54:05.896Z,82.38
2023-04-09T23:56:33.145Z,80.53
2023-04-09T23:59:00.657Z,84.93
